Time;durP1;ratioP1;P1;durP2;ratioP2;P2;SDS_P1;SDS_P2;PMS_P1;PMS_P2;Temp;Humidity;BMP_temperature;BMP_pressure;BME280_temperature;BME280_humidity;BME280_pressure;Samples;Min_cycle;Max_cycle;Signal;HPM_P1;HPM_P2
2022/08/10 00:00:25;;;;;;;8.25;3.00;;;;;;;;;;5053314;28;20554;-70
2022/08/10 00:02:54;;;;;;;8.57;2.83;;;;;;;;;;5038511;28;20088;-69
2022/08/10 00:05:21;;;;;;;12.70;2.70;;;;;;;;;;5032106;28;20045;-70
2022/08/10 00:07:48;;;;;;;7.45;2.70;;;;;;;;;;5032782;28;20030;-69
2022/08/10 00:10:16;;;;;;;8.02;2.75;;;;;;;;;;5033982;28;20044;-70
2022/08/10 00:12:42;;;;;;;7.93;2.35;;;;;;;;;;5034109;28;20477;-70
2022/08/10 00:15:10;;;;;;;7.88;2.72;;;;;;;;;;5033916;28;20477;-70
2022/08/10 00:17:36;;;;;;;5.60;2.55;;;;;;;;;;5033741;28;20035;-70
2022/08/10 00:20:03;;;;;;;11.23;3.17;;;;;;;;;;5051629;28;20439;-70
2022/08/10 00:22:30;;;;;;;8.68;2.58;;;;;;;;;;5053849;28;20104;-70
2022/08/10 00:24:56;;;;;;;10.60;2.95;;;;;;;;;;5053626;28;20163;-70
2022/08/10 00:27:23;;;;;;;11.40;2.95;;;;;;;;;;5053134;28;20544;-70
2022/08/10 00:29:49;;;;;;;14.35;3.10;;;;;;;;;;5052426;28;20396;-70
2022/08/10 00:32:15;;;;;;;14.15;3.67;;;;;;;;;;5053460;28;20056;-70
2022/08/10 00:34:42;;;;;;;11.68;4.82;;;;;;;;;;5053542;28;20045;-70
2022/08/10 00:37:08;;;;;;;14.98;4.35;;;;;;;;;;5053658;28;20033;-69
2022/08/10 00:39:34;;;;;;;12.95;4.53;;;;;;;;;;5053428;28;20488;-70
2022/08/10 00:42:00;;;;;;;9.52;5.30;;;;;;;;;;5053327;28;20108;-70
2022/08/10 00:44:26;;;;;;;9.02;5.15;;;;;;;;;;5053039;28;20392;-70
2022/08/10 00:46:51;;;;;;;9.57;3.80;;;;;;;;;;5053288;28;20383;-70
2022/08/10 00:49:17;;;;;;;8.60;3.85;;;;;;;;;;5053279;28;20476;-70
2022/08/10 00:51:44;;;;;;;9.15;3.83;;;;;;;;;;5053259;28;20039;-70
2022/08/10 00:54:10;;;;;;;12.00;3.35;;;;;;;;;;5053008;28;20028;-70
2022/08/10 00:56:36;;;;;;;7.93;3.38;;;;;;;;;;5053132;28;20067;-70
2022/08/10 00:59:02;;;;;;;7.45;3.15;;;;;;;;;;5053500;28;20388;-69
2022/08/10 01:01:28;;;;;;;7.05;3.05;;;;;;;;;;5053082;28;20036;-70
2022/08/10 01:03:54;;;;;;;10.68;2.95;;;;;;;;;;5051588;28;20033;-70
2022/08/10 01:06:31;;;;;;;10.38;3.22;;;;;;;;;;5053035;28;20029;-70
2022/08/10 01:09:10;;;;;;;12.10;3.38;;;;;;;;;;5052816;28;20110;-71
2022/08/10 01:11:57;;;;;;;10.38;4.07;;;;;;;;;;5052962;28;20037;-69
2022/08/10 01:14:34;;;;;;;10.05;3.60;;;;;;;;;;5052746;28;20025;-69
2022/08/10 01:17:09;;;;;;;12.85;3.40;;;;;;;;;;5052301;28;20467;-70
2022/08/10 01:19:41;;;;;;;14.20;3.22;;;;;;;;;;5052384;28;20032;-70
2022/08/10 01:22:35;;;;;;;8.15;3.45;;;;;;;;;;5052574;28;20040;-70
2022/08/10 01:25:07;;;;;;;8.68;3.33;;;;;;;;;;5048847;28;20091;-70
2022/08/10 01:27:45;;;;;;;7.85;3.38;;;;;;;;;;5052647;28;20033;-70
2022/08/10 01:30:17;;;;;;;5.20;2.72;;;;;;;;;;5052457;28;20506;-70
2022/08/10 01:33:08;;;;;;;14.38;3.40;;;;;;;;;;5052740;28;20032;-70
2022/08/10 01:35:51;;;;;;;8.93;2.88;;;;;;;;;;5052113;28;20052;-70
2022/08/10 01:38:26;;;;;;;10.98;3.28;;;;;;;;;;5051441;28;20036;-70
2022/08/10 01:41:05;;;;;;;8.82;3.15;;;;;;;;;;5051796;28;20035;-70
2022/08/10 01:43:35;;;;;;;8.57;3.00;;;;;;;;;;5052143;28;20397;-70
2022/08/10 01:46:04;;;;;;;11.25;3.08;;;;;;;;;;5045603;28;20515;-70
2022/08/10 01:48:37;;;;;;;11.63;3.25;;;;;;;;;;5032134;28;20064;-70
2022/08/10 01:51:17;;;;;;;11.82;2.97;;;;;;;;;;5040479;28;20119;-70
2022/08/10 01:53:53;;;;;;;10.80;2.95;;;;;;;;;;5032131;28;20056;-70
2022/08/10 01:56:22;;;;;;;10.10;2.75;;;;;;;;;;5032336;28;20095;-70
2022/08/10 01:58:54;;;;;;;11.77;2.90;;;;;;;;;;5031942;28;20069;-70
2022/08/10 02:01:24;;;;;;;8.30;2.87;;;;;;;;;;5031932;28;20026;-70
2022/08/10 02:03:52;;;;;;;6.43;2.72;;;;;;;;;;5031486;28;20663;-70
2022/08/10 02:06:21;;;;;;;8.80;3.28;;;;;;;;;;5031611;28;20091;-70
2022/08/10 02:08:50;;;;;;;6.35;2.55;;;;;;;;;;5030318;28;20412;-70
2022/08/10 02:11:18;;;;;;;8.45;3.22;;;;;;;;;;5031688;28;20057;-70
2022/08/10 02:13:44;;;;;;;5.38;2.80;;;;;;;;;;5030566;28;20451;-70
2022/08/10 02:16:11;;;;;;;9.20;2.78;;;;;;;;;;5031028;28;20037;-70
2022/08/10 02:18:39;;;;;;;10.73;2.80;;;;;;;;;;5032691;28;20036;-70
2022/08/10 02:21:06;;;;;;;7.88;3.05;;;;;;;;;;5032762;28;20687;-70
2022/08/10 02:23:36;;;;;;;12.98;3.40;;;;;;;;;;5031515;28;20038;-70
2022/08/10 02:26:03;;;;;;;8.95;3.40;;;;;;;;;;5032971;28;20030;-70
2022/08/10 02:28:32;;;;;;;6.43;2.80;;;;;;;;;;5031754;28;20084;-70
2022/08/10 02:31:05;;;;;;;8.85;3.30;;;;;;;;;;5032610;28;20036;-70
2022/08/10 02:33:33;;;;;;;12.88;3.35;;;;;;;;;;5032391;28;20029;-70
2022/08/10 02:36:02;;;;;;;7.10;2.80;;;;;;;;;;5031219;28;20113;-70
2022/08/10 02:38:40;;;;;;;7.47;2.70;;;;;;;;;;5032678;28;20087;-70
2022/08/10 02:41:27;;;;;;;6.35;2.70;;;;;;;;;;5032456;28;20088;-71
2022/08/10 02:44:07;;;;;;;6.22;2.75;;;;;;;;;;5032542;28;20095;-70
2022/08/10 02:46:48;;;;;;;9.55;3.13;;;;;;;;;;5032459;28;20033;-70
2022/08/10 02:49:20;;;;;;;7.50;3.20;;;;;;;;;;5031172;28;20029;-70
2022/08/10 02:51:53;;;;;;;8.00;2.60;;;;;;;;;;5035761;28;20057;-70
2022/08/10 02:54:27;;;;;;;5.72;2.78;;;;;;;;;;5036356;28;20151;-70
2022/08/10 02:57:08;;;;;;;13.38;2.92;;;;;;;;;;5036393;28;20083;-70
2022/08/10 02:59:40;;;;;;;6.45;2.60;;;;;;;;;;5036155;28;20091;-70
2022/08/10 03:02:12;;;;;;;12.77;3.50;;;;;;;;;;5036435;28;20116;-70
2022/08/10 03:04:47;;;;;;;6.90;2.85;;;;;;;;;;5035126;28;20037;-70
2022/08/10 03:07:16;;;;;;;6.35;2.85;;;;;;;;;;5036011;28;20469;-70
2022/08/10 03:09:46;;;;;;;13.73;3.45;;;;;;;;;;5036088;28;20033;-71
2022/08/10 03:12:14;;;;;;;8.57;2.97;;;;;;;;;;5036585;28;20037;-71
2022/08/10 03:14:41;;;;;;;7.15;2.70;;;;;;;;;;5036105;28;20087;-71
2022/08/10 03:17:09;;;;;;;6.03;2.92;;;;;;;;;;5035754;28;20468;-70
2022/08/10 03:19:37;;;;;;;8.70;3.40;;;;;;;;;;5035812;28;20040;-71
2022/08/10 03:22:04;;;;;;;8.75;3.33;;;;;;;;;;5035704;28;20117;-70
2022/08/10 03:24:32;;;;;;;8.25;2.75;;;;;;;;;;5035751;28;20026;-70
2022/08/10 03:26:59;;;;;;;13.52;3.72;;;;;;;;;;5036264;28;20155;-70
2022/08/10 03:29:25;;;;;;;8.60;2.90;;;;;;;;;;5035959;28;20073;-70
2022/08/10 03:31:52;;;;;;;7.07;3.17;;;;;;;;;;5035883;28;20072;-71
2022/08/10 03:34:19;;;;;;;7.43;2.88;;;;;;;;;;5034174;28;20172;-71
2022/08/10 03:36:45;;;;;;;12.10;3.10;;;;;;;;;;5035317;28;20496;-70
2022/08/10 03:39:12;;;;;;;10.65;3.22;;;;;;;;;;5035371;28;20135;-70
2022/08/10 03:41:49;;;;;;;9.48;3.00;;;;;;;;;;5035372;28;20544;-70
2022/08/10 03:44:20;;;;;;;13.10;3.55;;;;;;;;;;5035152;28;20400;-70
2022/08/10 03:46:47;;;;;;;12.02;3.00;;;;;;;;;;5035209;28;20079;-70
2022/08/10 03:49:16;;;;;;;9.30;2.97;;;;;;;;;;5044798;28;20064;-70
2022/08/10 03:51:42;;;;;;;7.80;2.90;;;;;;;;;;5035456;28;20029;-70
2022/08/10 03:54:08;;;;;;;10.43;2.83;;;;;;;;;;5035242;28;20061;-70
2022/08/10 03:56:36;;;;;;;11.35;2.60;;;;;;;;;;5035128;28;20138;-70
2022/08/10 03:59:03;;;;;;;5.57;2.90;;;;;;;;;;5035222;28;20032;-70
2022/08/10 04:01:29;;;;;;;8.38;2.92;;;;;;;;;;5035140;28;20080;-71
2022/08/10 04:03:55;;;;;;;19.27;3.60;;;;;;;;;;5033610;28;20061;-70
2022/08/10 04:06:22;;;;;;;12.98;3.55;;;;;;;;;;5034784;28;20033;-70
2022/08/10 04:08:48;;;;;;;21.45;4.07;;;;;;;;;;5034722;28;20530;-71
2022/08/10 04:11:14;;;;;;;8.70;2.90;;;;;;;;;;5034864;28;20038;-71
2022/08/10 04:13:39;;;;;;;8.32;3.25;;;;;;;;;;5034761;28;20025;-70
2022/08/10 04:16:06;;;;;;;9.38;3.35;;;;;;;;;;5036965;28;20037;-70
2022/08/10 04:18:32;;;;;;;10.40;3.17;;;;;;;;;;5043490;28;20060;-70
2022/08/10 04:21:03;;;;;;;13.00;4.32;;;;;;;;;;5034760;28;20085;-70
2022/08/10 04:23:33;;;;;;;9.90;3.63;;;;;;;;;;5033633;28;20033;-70
2022/08/10 04:25:59;;;;;;;9.13;3.25;;;;;;;;;;5034529;28;20485;-70
2022/08/10 04:28:25;;;;;;;10.50;3.80;;;;;;;;;;5034078;28;20034;-70
2022/08/10 04:30:53;;;;;;;14.20;3.88;;;;;;;;;;5034285;28;20040;-70
2022/08/10 04:33:22;;;;;;;7.63;3.17;;;;;;;;;;5034468;28;20033;-70
2022/08/10 04:35:49;;;;;;;9.88;3.40;;;;;;;;;;5045679;28;20052;-70
2022/08/10 04:38:17;;;;;;;17.85;4.35;;;;;;;;;;5054298;28;20048;-71
2022/08/10 04:40:45;;;;;;;12.52;4.35;;;;;;;;;;5054227;28;20436;-70
2022/08/10 04:43:12;;;;;;;11.68;3.63;;;;;;;;;;5052882;28;20037;-71
2022/08/10 04:45:39;;;;;;;12.07;4.00;;;;;;;;;;5054090;28;20029;-72
2022/08/10 04:48:05;;;;;;;11.75;3.72;;;;;;;;;;5051618;28;20037;-71
2022/08/10 04:50:31;;;;;;;10.20;3.40;;;;;;;;;;5053667;28;20395;-71
2022/08/10 04:52:57;;;;;;;12.90;3.80;;;;;;;;;;5053454;28;20479;-71
2022/08/10 04:55:23;;;;;;;12.43;3.80;;;;;;;;;;5052053;28;20037;-71
2022/08/10 04:57:49;;;;;;;11.23;3.58;;;;;;;;;;5053541;28;20681;-71
2022/08/10 05:00:15;;;;;;;14.43;3.97;;;;;;;;;;5051164;28;20108;-72
2022/08/10 05:02:41;;;;;;;14.90;3.90;;;;;;;;;;5043383;28;20113;-72
2022/08/10 05:05:07;;;;;;;8.50;3.90;;;;;;;;;;5039489;28;20127;-71
2022/08/10 05:07:33;;;;;;;11.32;3.60;;;;;;;;;;5053418;28;20498;-72
2022/08/10 05:09:59;;;;;;;7.97;3.28;;;;;;;;;;5053446;28;20060;-71
2022/08/10 05:12:25;;;;;;;8.63;2.90;;;;;;;;;;5052426;28;20057;-72
2022/08/10 05:14:51;;;;;;;11.30;2.60;;;;;;;;;;5051930;28;20079;-70
2022/08/10 05:17:18;;;;;;;8.65;3.15;;;;;;;;;;5053070;28;20036;-71
2022/08/10 05:19:44;;;;;;;7.90;2.90;;;;;;;;;;5052573;28;20094;-72
2022/08/10 05:22:10;;;;;;;10.88;3.50;;;;;;;;;;5052602;28;20037;-70
2022/08/10 05:24:36;;;;;;;11.63;3.13;;;;;;;;;;5051157;28;20108;-76
2022/08/10 05:27:02;;;;;;;10.65;3.38;;;;;;;;;;5052161;28;20041;-74
2022/08/10 05:29:28;;;;;;;10.15;3.72;;;;;;;;;;5052373;28;20037;-75
2022/08/10 05:31:54;;;;;;;16.02;3.30;;;;;;;;;;5052362;28;20660;-73
2022/08/10 05:34:25;;;;;;;7.93;3.08;;;;;;;;;;5052167;28;20072;-74
2022/08/10 05:36:54;;;;;;;17.67;3.60;;;;;;;;;;5052483;28;20048;-73
2022/08/10 05:39:22;;;;;;;13.00;4.07;;;;;;;;;;5052752;28;20056;-77
2022/08/10 05:41:53;;;;;;;14.38;3.50;;;;;;;;;;5052869;28;20029;-78
2022/08/10 05:44:23;;;;;;;8.45;3.10;;;;;;;;;;5050867;28;20033;-80
2022/08/10 05:46:49;;;;;;;13.35;3.40;;;;;;;;;;5051624;28;20037;-74
2022/08/10 05:49:15;;;;;;;13.65;3.10;;;;;;;;;;5044694;28;20407;-76
2022/08/10 05:51:42;;;;;;;17.33;4.20;;;;;;;;;;5032926;28;20037;-75
2022/08/10 05:54:13;;;;;;;19.27;5.05;;;;;;;;;;5031335;28;20155;-75
2022/08/10 05:56:41;;;;;;;12.65;3.53;;;;;;;;;;5043454;28;20045;-73
2022/08/10 05:59:09;;;;;;;10.75;2.78;;;;;;;;;;5052104;28;20036;-74
2022/08/10 06:01:39;;;;;;;8.75;2.47;;;;;;;;;;5052485;28;20021;-75
2022/08/10 06:04:08;;;;;;;9.63;2.80;;;;;;;;;;5052747;28;20037;-73
2022/08/10 06:06:35;;;;;;;10.40;2.88;;;;;;;;;;5049094;28;20048;-75
2022/08/10 06:09:02;;;;;;;10.57;3.42;;;;;;;;;;5040997;28;20112;-75
2022/08/10 06:11:31;;;;;;;8.65;3.00;;;;;;;;;;5052367;28;20435;-77
2022/08/10 06:16:44;;;;;;;11.25;3.58;;;;;;;;;;5051846;28;20106;-79
2022/08/10 06:19:11;;;;;;;9.55;3.30;;;;;;;;;;5051706;28;20037;-77
2022/08/10 06:21:37;;;;;;;10.00;2.88;;;;;;;;;;5051675;28;20124;-77
2022/08/10 06:24:08;;;;;;;7.50;2.88;;;;;;;;;;5052147;28;20451;-76
2022/08/10 06:26:33;;;;;;;6.57;2.75;;;;;;;;;;5051670;28;20467;-81
2022/08/10 06:29:06;;;;;;;10.38;2.63;;;;;;;;;;5051441;28;20037;-75
2022/08/10 06:31:36;;;;;;;9.38;2.65;;;;;;;;;;5051204;28;20484;-75
2022/08/10 06:34:05;;;;;;;5.63;2.42;;;;;;;;;;5051009;28;20045;-76
2022/08/10 06:36:32;;;;;;;7.93;2.65;;;;;;;;;;5051640;28;20087;-78
2022/08/10 06:38:58;;;;;;;7.82;2.63;;;;;;;;;;5030428;28;20034;-77
2022/08/10 06:41:28;;;;;;;8.98;2.35;;;;;;;;;;5031059;28;20034;-83
2022/08/10 06:44:05;;;;;;;5.95;2.30;;;;;;;;;;5032407;28;20034;-79
2022/08/10 06:46:36;;;;;;;9.68;2.60;;;;;;;;;;5032352;28;20093;-78
2022/08/10 06:49:06;;;;;;;9.73;2.50;;;;;;;;;;5032025;28;20040;-79
2022/08/10 06:51:34;;;;;;;10.90;2.70;;;;;;;;;;5031826;28;20025;-78
2022/08/10 06:54:05;;;;;;;13.82;2.53;;;;;;;;;;5032322;28;20063;-78
2022/08/10 06:56:34;;;;;;;9.15;2.70;;;;;;;;;;5032064;28;20107;-78
2022/08/10 06:59:08;;;;;;;8.80;2.70;;;;;;;;;;5032327;28;20037;-81
2022/08/10 07:01:36;;;;;;;6.15;2.50;;;;;;;;;;5032402;28;20037;-79
2022/08/10 07:04:09;;;;;;;10.63;2.60;;;;;;;;;;5032054;28;20044;-79
2022/08/10 07:06:37;;;;;;;8.65;2.20;;;;;;;;;;5031997;28;20045;-76
2022/08/10 07:09:05;;;;;;;10.43;2.50;;;;;;;;;;5031416;28;20030;-79
2022/08/10 07:11:32;;;;;;;10.27;2.70;;;;;;;;;;5032428;28;20083;-81
2022/08/10 07:14:00;;;;;;;10.35;2.75;;;;;;;;;;5032595;28;20044;-82
2022/08/10 07:16:27;;;;;;;10.00;2.58;;;;;;;;;;5032633;28;20048;-76
2022/08/10 07:18:56;;;;;;;11.40;2.40;;;;;;;;;;5030906;28;20080;-76
2022/08/10 07:21:25;;;;;;;5.47;2.50;;;;;;;;;;5031910;28;20033;-78
2022/08/10 07:23:52;;;;;;;6.25;2.70;;;;;;;;;;5031818;28;20032;-76
2022/08/10 07:26:20;;;;;;;8.55;2.95;;;;;;;;;;5031988;28;20065;-77
2022/08/10 07:28:48;;;;;;;9.52;3.20;;;;;;;;;;5031719;28;20029;-76
2022/08/10 07:31:17;;;;;;;9.88;3.08;;;;;;;;;;5050850;28;20105;-76
2022/08/10 07:33:45;;;;;;;11.77;3.15;;;;;;;;;;5050402;28;20456;-77
2022/08/10 07:36:13;;;;;;;7.20;2.83;;;;;;;;;;5051614;28;20033;-78
2022/08/10 07:38:40;;;;;;;7.00;3.42;;;;;;;;;;5054518;28;20037;-77
2022/08/10 07:41:07;;;;;;;10.30;2.60;;;;;;;;;;5054997;28;20064;-78
2022/08/10 07:43:37;;;;;;;8.95;3.00;;;;;;;;;;5055089;28;20112;-76
2022/08/10 07:46:04;;;;;;;9.15;3.38;;;;;;;;;;5055064;28;20464;-77
2022/08/10 07:48:35;;;;;;;10.63;3.17;;;;;;;;;;5055320;28;20044;-78
2022/08/10 07:51:02;;;;;;;4.28;2.92;;;;;;;;;;5055201;28;20045;-76
2022/08/10 07:53:37;;;;;;;8.50;3.00;;;;;;;;;;5054920;28;20479;-76
2022/08/10 07:56:04;;;;;;;6.82;2.63;;;;;;;;;;5055169;28;20041;-76
2022/08/10 07:58:54;;;;;;;6.35;3.13;;;;;;;;;;5054802;28;20033;-75
2022/08/10 08:01:25;;;;;;;6.22;3.05;;;;;;;;;;5053392;28;20044;-75
2022/08/10 08:03:53;;;;;;;5.35;2.80;;;;;;;;;;5052627;28;20029;-77
2022/08/10 08:06:19;;;;;;;9.02;3.15;;;;;;;;;;5054516;28;20542;-78
2022/08/10 08:08:45;;;;;;;5.43;2.97;;;;;;;;;;5054705;28;20485;-75
2022/08/10 08:11:13;;;;;;;8.48;2.85;;;;;;;;;;5038229;28;20026;-76
2022/08/10 08:13:39;;;;;;;9.43;3.08;;;;;;;;;;5046515;28;20087;-75
2022/08/10 08:16:08;;;;;;;9.43;2.75;;;;;;;;;;5054221;28;20032;-75
2022/08/10 08:18:35;;;;;;;7.57;2.83;;;;;;;;;;5049713;28;20034;-75
2022/08/10 08:21:02;;;;;;;10.68;3.00;;;;;;;;;;5048595;28;20087;-74
2022/08/10 08:23:30;;;;;;;7.85;3.00;;;;;;;;;;5054107;28;20108;-76
2022/08/10 08:25:57;;;;;;;5.68;3.00;;;;;;;;;;5037562;28;20105;-74
2022/08/10 08:28:25;;;;;;;9.88;3.08;;;;;;;;;;5054124;28;20032;-77
2022/08/10 08:30:53;;;;;;;8.75;3.20;;;;;;;;;;5053528;28;20041;-75
2022/08/10 08:33:28;;;;;;;6.40;2.90;;;;;;;;;;5050707;28;20475;-74
2022/08/10 08:35:55;;;;;;;7.63;3.38;;;;;;;;;;5052990;28;20040;-77
2022/08/10 08:38:22;;;;;;;8.13;2.90;;;;;;;;;;5054116;28;20476;-74
2022/08/10 08:41:03;;;;;;;6.55;2.85;;;;;;;;;;5053941;28;20029;-76
2022/08/10 08:43:52;;;;;;;6.35;2.83;;;;;;;;;;5052925;28;20383;-73
2022/08/10 08:46:30;;;;;;;10.48;3.20;;;;;;;;;;5048108;28;20476;-73
2022/08/10 08:49:14;;;;;;;4.20;2.90;;;;;;;;;;5053252;28;20033;-74
2022/08/10 08:52:00;;;;;;;5.88;3.03;;;;;;;;;;5053470;28;20032;-74
2022/08/10 08:54:48;;;;;;;5.63;2.83;;;;;;;;;;5053216;28;20464;-72
2022/08/10 08:57:26;;;;;;;5.35;2.97;;;;;;;;;;5053136;28;20425;-74
2022/08/10 09:00:13;;;;;;;6.75;2.78;;;;;;;;;;5052771;28;20032;-74
2022/08/10 09:03:00;;;;;;;9.80;3.33;;;;;;;;;;5053272;28;20033;-74
2022/08/10 09:06:03;;;;;;;6.20;2.72;;;;;;;;;;5052009;28;20039;-74
2022/08/10 09:09:07;;;;;;;4.95;2.80;;;;;;;;;;5052792;28;20052;-74
2022/08/10 09:12:10;;;;;;;6.43;3.22;;;;;;;;;;5053093;28;20037;-74
2022/08/10 09:14:43;;;;;;;6.15;3.10;;;;;;;;;;5053114;28;20396;-71
2022/08/10 09:17:41;;;;;;;5.85;3.25;;;;;;;;;;5053396;28;20192;-74
2022/08/10 09:20:14;;;;;;;7.60;2.95;;;;;;;;;;5052988;28;20092;-76
2022/08/10 09:22:58;;;;;;;11.63;4.82;;;;;;;;;;5053183;28;20468;-79
2022/08/10 09:25:43;;;;;;;6.82;3.45;;;;;;;;;;5053171;28;20033;-76
2022/08/10 09:28:18;;;;;;;7.88;3.88;;;;;;;;;;5052885;28;20102;-80
2022/08/10 09:30:58;;;;;;;6.35;3.30;;;;;;;;;;5052611;28;20056;-74
2022/08/10 09:34:00;;;;;;;10.48;4.72;;;;;;;;;;5051821;28;20438;-75
2022/08/10 09:36:43;;;;;;;9.13;3.67;;;;;;;;;;5052782;28;20033;-75
2022/08/10 09:39:27;;;;;;;6.40;3.35;;;;;;;;;;5052985;28;20104;-75
2022/08/10 09:42:16;;;;;;;10.45;3.90;;;;;;;;;;5052868;28;20033;-74
2022/08/10 09:45:00;;;;;;;9.30;4.07;;;;;;;;;;5049037;28;20032;-76
2022/08/10 09:47:48;;;;;;;5.95;3.47;;;;;;;;;;5043919;28;20033;-77
2022/08/10 09:50:36;;;;;;;5.80;3.03;;;;;;;;;;5047539;28;20041;-75
2022/08/10 09:53:15;;;;;;;14.32;4.55;;;;;;;;;;5030500;28;20029;-78
2022/08/10 09:55:53;;;;;;;9.25;4.60;;;;;;;;;;5048625;28;20060;-77
2022/08/10 09:58:41;;;;;;;7.80;3.72;;;;;;;;;;5051455;28;20377;-74
2022/08/10 10:01:51;;;;;;;6.55;4.22;;;;;;;;;;5048087;28;20028;-73
2022/08/10 10:04:55;;;;;;;13.60;4.70;;;;;;;;;;5050737;28;20049;-77
2022/08/10 10:07:28;;;;;;;9.70;3.35;;;;;;;;;;5050085;28;20033;-74
2022/08/10 10:10:02;;;;;;;8.48;3.42;;;;;;;;;;5050561;28;20025;-76
2022/08/10 10:12:53;;;;;;;8.63;4.05;;;;;;;;;;5051219;28;20159;-74
2022/08/10 10:15:43;;;;;;;7.57;3.92;;;;;;;;;;5051054;28;20044;-74
2022/08/10 10:18:27;;;;;;;7.95;3.13;;;;;;;;;;5051187;28;20056;-73
2022/08/10 10:20:53;;;;;;;5.78;3.50;;;;;;;;;;5049356;28;20041;-72
2022/08/10 10:23:41;;;;;;;8.57;3.30;;;;;;;;;;5049527;28;20086;-74
2022/08/10 10:26:10;;;;;;;6.78;3.10;;;;;;;;;;5048190;28;20024;-74
2022/08/10 10:28:46;;;;;;;8.27;4.40;;;;;;;;;;5036674;28;20079;-72
2022/08/10 10:31:24;;;;;;;7.75;3.30;;;;;;;;;;5031290;28;20362;-73
2022/08/10 10:34:41;;;;;;;6.70;4.03;;;;;;;;;;5030901;28;20041;-71
2022/08/10 10:37:09;;;;;;;5.78;3.90;;;;;;;;;;5032291;28;20037;-72
2022/08/10 10:39:42;;;;;;;6.78;2.80;;;;;;;;;;5047499;28;20071;-73
2022/08/10 10:42:26;;;;;;;6.07;2.67;;;;;;;;;;5050762;28;20043;-72
2022/08/10 10:45:26;;;;;;;9.43;3.60;;;;;;;;;;5050192;28;20128;-74
2022/08/10 10:48:07;;;;;;;11.13;3.20;;;;;;;;;;5033465;28;20068;-73
2022/08/10 10:51:09;;;;;;;11.85;4.30;;;;;;;;;;5050241;28;20528;-75
2022/08/10 10:53:59;;;;;;;6.97;2.92;;;;;;;;;;5050382;28;20037;-74
2022/08/10 10:56:45;;;;;;;6.88;2.67;;;;;;;;;;5049920;28;20033;-74
2022/08/10 10:59:43;;;;;;;7.60;2.80;;;;;;;;;;5050934;28;20041;-74
2022/08/10 11:02:37;;;;;;;5.57;2.63;;;;;;;;;;5050475;28;20060;-73
2022/08/10 11:05:06;;;;;;;3.40;2.20;;;;;;;;;;5036295;28;20396;-73
2022/08/10 11:07:58;;;;;;;6.85;2.53;;;;;;;;;;5030914;28;20034;-73
2022/08/10 11:10:36;;;;;;;9.52;3.20;;;;;;;;;;5029682;28;20037;-74
2022/08/10 11:13:05;;;;;;;4.85;2.63;;;;;;;;;;5038767;28;20071;-74
2022/08/10 11:15:40;;;;;;;10.68;2.65;;;;;;;;;;5054577;28;20083;-74
2022/08/10 11:18:19;;;;;;;3.28;2.10;;;;;;;;;;5054135;28;20040;-73
2022/08/10 11:21:12;;;;;;;10.18;2.58;;;;;;;;;;5054085;28;20640;-73
2022/08/10 11:23:49;;;;;;;3.28;1.90;;;;;;;;;;5054023;28;20442;-73
2022/08/10 11:26:27;;;;;;;5.28;1.90;;;;;;;;;;5053153;28;20112;-73
2022/08/10 11:29:02;;;;;;;4.05;1.80;;;;;;;;;;5055402;28;20695;-77
2022/08/10 11:31:37;;;;;;;5.15;2.20;;;;;;;;;;5054309;28;20037;-74
2022/08/10 11:34:10;;;;;;;7.70;2.30;;;;;;;;;;5053609;28;20052;-74
2022/08/10 11:37:17;;;;;;;8.73;2.30;;;;;;;;;;5053917;28;20585;-75
2022/08/10 11:39:47;;;;;;;5.25;2.20;;;;;;;;;;5047613;28;20127;-74
2022/08/10 11:42:30;;;;;;;8.05;2.25;;;;;;;;;;5054555;28;20037;-75
2022/08/10 11:45:02;;;;;;;4.22;2.30;;;;;;;;;;5055395;28;20025;-75
2022/08/10 11:47:52;;;;;;;5.43;2.38;;;;;;;;;;5055395;28;20116;-73
2022/08/10 11:50:48;;;;;;;7.55;2.35;;;;;;;;;;5055285;28;20036;-73
2022/08/10 11:53:37;;;;;;;1.88;1.50;;;;;;;;;;5052342;28;20048;-73
2022/08/10 11:56:05;;;;;;;6.85;1.85;;;;;;;;;;5043678;28;20037;-73
2022/08/10 12:01:30;;;;;;;8.50;2.30;;;;;;;;;;5039569;28;20034;-74
2022/08/10 12:03:58;;;;;;;3.22;1.98;;;;;;;;;;5034088;28;20041;-74
2022/08/10 12:06:27;;;;;;;5.32;2.35;;;;;;;;;;5032640;28;20063;-74
2022/08/10 12:08:54;;;;;;;5.03;2.13;;;;;;;;;;5033625;28;20060;-75
2022/08/10 12:11:27;;;;;;;3.85;1.95;;;;;;;;;;5033881;28;20400;-75
2022/08/10 12:14:35;;;;;;;5.88;1.80;;;;;;;;;;5034011;28;20080;-75
2022/08/10 12:17:08;;;;;;;3.60;1.85;;;;;;;;;;5033948;28;20082;-74
2022/08/10 12:20:03;;;;;;;7.47;2.25;;;;;;;;;;5034021;28;20025;-75
2022/08/10 12:23:14;;;;;;;6.47;1.80;;;;;;;;;;5048646;28;21064;-73
2022/08/10 12:25:48;;;;;;;4.25;1.83;;;;;;;;;;5026663;28;20050;-76
2022/08/10 12:28:23;;;;;;;5.95;1.63;;;;;;;;;;5033500;28;20456;-75
2022/08/10 12:30:55;;;;;;;3.13;1.63;;;;;;;;;;5034145;28;20041;-73
2022/08/10 12:33:47;;;;;;;4.63;1.70;;;;;;;;;;5034581;28;20029;-74
2022/08/10 12:36:26;;;;;;;6.55;1.95;;;;;;;;;;5018883;28;20485;-73
2022/08/10 12:39:11;;;;;;;4.05;1.90;;;;;;;;;;5033307;28;20079;-74
2022/08/10 12:41:56;;;;;;;3.63;1.95;;;;;;;;;;5034764;28;20029;-73
2022/08/10 12:44:47;;;;;;;3.45;1.70;;;;;;;;;;5034524;28;20108;-75
2022/08/10 12:47:43;;;;;;;4.32;1.90;;;;;;;;;;5047219;28;20025;-74
2022/08/10 12:50:18;;;;;;;5.57;1.80;;;;;;;;;;5045221;28;20163;-74
2022/08/10 12:52:55;;;;;;;4.97;1.83;;;;;;;;;;5034387;28;20176;-75
2022/08/10 12:55:23;;;;;;;3.45;1.55;;;;;;;;;;5051092;28;20025;-75
2022/08/10 12:57:52;;;;;;;3.20;1.67;;;;;;;;;;5046762;28;20034;-75
2022/08/10 13:00:19;;;;;;;3.28;1.75;;;;;;;;;;5034236;28;20041;-74
2022/08/10 13:02:46;;;;;;;3.60;1.50;;;;;;;;;;5034345;28;20048;-75
2022/08/10 13:05:13;;;;;;;4.80;1.60;;;;;;;;;;5034129;28;20040;-75
2022/08/10 13:07:45;;;;;;;5.60;1.85;;;;;;;;;;5033501;28;20029;-77
2022/08/10 13:10:15;;;;;;;4.18;1.65;;;;;;;;;;5033955;28;20445;-78
2022/08/10 13:12:47;;;;;;;2.35;1.60;;;;;;;;;;5036075;28;20032;-79
2022/08/10 13:15:21;;;;;;;5.00;1.50;;;;;;;;;;5044641;28;20029;-74
2022/08/10 13:17:49;;;;;;;6.03;1.77;;;;;;;;;;5033992;28;20047;-78
2022/08/10 13:20:25;;;;;;;3.55;1.50;;;;;;;;;;5048067;28;20056;-76
2022/08/10 13:22:56;;;;;;;3.72;1.70;;;;;;;;;;5040678;28;20518;-76
2022/08/10 13:25:28;;;;;;;5.72;1.60;;;;;;;;;;5051980;28;20117;-75
2022/08/10 13:28:03;;;;;;;3.38;1.75;;;;;;;;;;5045666;28;20112;-74
2022/08/10 13:30:29;;;;;;;4.53;1.90;;;;;;;;;;5032455;28;20116;-73
2022/08/10 13:32:57;;;;;;;4.60;1.65;;;;;;;;;;5032458;28;20041;-75
2022/08/10 13:35:26;;;;;;;4.82;1.60;;;;;;;;;;5031286;28;20047;-74
2022/08/10 13:37:54;;;;;;;4.63;1.75;;;;;;;;;;5048180;28;20032;-74
2022/08/10 13:40:21;;;;;;;2.78;1.50;;;;;;;;;;5052028;28;20112;-74
2022/08/10 13:42:50;;;;;;;7.55;1.63;;;;;;;;;;5046281;28;20036;-72
2022/08/10 13:45:21;;;;;;;2.97;1.90;;;;;;;;;;5031554;28;20073;-72
2022/08/10 13:47:54;;;;;;;5.15;1.95;;;;;;;;;;5033940;28;20038;-76
2022/08/10 13:50:28;;;;;;;5.38;2.03;;;;;;;;;;5051423;28;20029;-73
2022/08/10 13:52:56;;;;;;;5.40;1.90;;;;;;;;;;5051810;28;20033;-77
2022/08/10 13:55:25;;;;;;;6.25;1.75;;;;;;;;;;5047225;28;20037;-74
2022/08/10 13:57:55;;;;;;;4.20;1.70;;;;;;;;;;5050800;28;20032;-77
2022/08/10 14:00:32;;;;;;;5.00;1.67;;;;;;;;;;5051389;28;20396;-75
2022/08/10 14:03:07;;;;;;;4.22;1.67;;;;;;;;;;5038676;28;20124;-73
2022/08/10 14:05:36;;;;;;;4.40;1.75;;;;;;;;;;5030226;28;20706;-73
2022/08/10 14:08:04;;;;;;;7.90;2.00;;;;;;;;;;5034271;28;20036;-74
2022/08/10 14:10:37;;;;;;;8.75;2.20;;;;;;;;;;5051239;28;20040;-77
2022/08/10 14:13:05;;;;;;;4.13;2.00;;;;;;;;;;5031353;28;20553;-75
2022/08/10 14:15:33;;;;;;;3.30;1.80;;;;;;;;;;5030658;28;20068;-76
2022/08/10 14:18:00;;;;;;;4.22;1.70;;;;;;;;;;5030906;28;20026;-74
2022/08/10 14:20:32;;;;;;;4.97;2.08;;;;;;;;;;5031828;28;20044;-74
2022/08/10 14:23:10;;;;;;;2.42;1.50;;;;;;;;;;5051123;28;20116;-73
2022/08/10 14:25:49;;;;;;;3.85;1.90;;;;;;;;;;5051180;28;20037;-75
2022/08/10 14:28:18;;;;;;;4.93;1.63;;;;;;;;;;5051150;28;20040;-75
2022/08/10 14:30:53;;;;;;;4.78;2.00;;;;;;;;;;5039542;28;20407;-75
2022/08/10 14:33:22;;;;;;;3.83;2.20;;;;;;;;;;5033188;28;20048;-73
2022/08/10 14:35:50;;;;;;;6.70;2.10;;;;;;;;;;5038973;28;20041;-78
2022/08/10 14:38:19;;;;;;;5.85;2.00;;;;;;;;;;5050892;28;20455;-75
2022/08/10 14:40:51;;;;;;;4.90;2.00;;;;;;;;;;5051255;28;20037;-75
2022/08/10 14:43:23;;;;;;;2.20;1.60;;;;;;;;;;5050780;28;20142;-76
2022/08/10 14:46:05;;;;;;;4.35;1.70;;;;;;;;;;5031959;28;20116;-75
2022/08/10 14:48:40;;;;;;;4.28;1.60;;;;;;;;;;5054870;28;20029;-78
2022/08/10 14:51:09;;;;;;;4.22;1.70;;;;;;;;;;5055122;28;20074;-76
2022/08/10 14:53:38;;;;;;;2.33;1.63;;;;;;;;;;5055133;28;20404;-75
2022/08/10 14:56:08;;;;;;;5.63;2.05;;;;;;;;;;5054674;28;20040;-79
2022/08/10 14:58:56;;;;;;;2.30;1.60;;;;;;;;;;5054299;28;20029;-79
2022/08/10 15:01:22;;;;;;;7.03;1.60;;;;;;;;;;5052092;28;20123;-78
2022/08/10 15:04:02;;;;;;;4.43;1.80;;;;;;;;;;5044442;28;20029;-79
2022/08/10 15:06:34;;;;;;;5.47;1.80;;;;;;;;;;5055139;28;20430;-78
2022/08/10 15:09:03;;;;;;;2.53;1.50;;;;;;;;;;5055048;28;20384;-80
2022/08/10 15:11:34;;;;;;;3.15;1.80;;;;;;;;;;5054265;28;20112;-78
2022/08/10 15:14:02;;;;;;;2.67;1.52;;;;;;;;;;5054525;28;20055;-77
2022/08/10 15:16:31;;;;;;;3.97;1.58;;;;;;;;;;5054275;28;20037;-79
2022/08/10 15:18:58;;;;;;;4.10;1.55;;;;;;;;;;5054458;28;20506;-78